sensor_id;sensor_type;location;lat;lon;timestamp;temperature;humidity
18218;DHT22;9234;49.344;11.120;2023-07-22T00:02:02;15.00;99.90
18218;DHT22;9234;49.344;11.120;2023-07-22T00:04:30;14.90;99.90
18218;DHT22;9234;49.344;11.120;2023-07-22T00:07:01;14.90;99.90
18218;DHT22;9234;49.344;11.120;2023-07-22T00:09:29;14.90;99.90
18218;DHT22;9234;49.344;11.120;2023-07-22T00:12:01;14.80;99.90
18218;DHT22;9234;49.344;11.120;2023-07-22T00:14:30;14.80;99.90
18218;DHT22;9234;49.344;11.120;2023-07-22T00:16:58;14.70;99.90
18218;DHT22;9234;49.344;11.120;2023-07-22T00:19:26;14.70;99.90
18218;DHT22;9234;49.344;11.120;2023-07-22T00:21:54;14.60;99.90
18218;DHT22;9234;49.344;11.120;2023-07-22T00:24:24;14.60;99.90
18218;DHT22;9234;49.344;11.120;2023-07-22T00:26:53;14.60;99.90
18218;DHT22;9234;49.344;11.120;2023-07-22T00:29:21;14.50;99.90
18218;DHT22;9234;49.344;11.120;2023-07-22T00:31:50;14.50;99.90
18218;DHT22;9234;49.344;11.120;2023-07-22T00:34:18;14.40;99.90
18218;DHT22;9234;49.344;11.120;2023-07-22T00:36:46;14.40;99.90
18218;DHT22;9234;49.344;11.120;2023-07-22T00:39:15;14.30;99.90
18218;DHT22;9234;49.344;11.120;2023-07-22T00:41:46;14.30;99.90
18218;DHT22;9234;49.344;11.120;2023-07-22T00:44:14;14.20;99.90
18218;DHT22;9234;49.344;11.120;2023-07-22T00:46:43;14.20;99.90
18218;DHT22;9234;49.344;11.120;2023-07-22T00:49:14;14.20;99.90
18218;DHT22;9234;49.344;11.120;2023-07-22T00:51:43;14.10;99.90
18218;DHT22;9234;49.344;11.120;2023-07-22T00:54:11;14.10;99.90
18218;DHT22;9234;49.344;11.120;2023-07-22T00:56:40;14.10;99.90
18218;DHT22;9234;49.344;11.120;2023-07-22T00:59:11;14.10;99.90
18218;DHT22;9234;49.344;11.120;2023-07-22T01:01:41;14.00;99.90
18218;DHT22;9234;49.344;11.120;2023-07-22T01:04:10;14.00;99.90
18218;DHT22;9234;49.344;11.120;2023-07-22T01:06:38;14.00;99.90
18218;DHT22;9234;49.344;11.120;2023-07-22T01:09:06;13.90;99.90
18218;DHT22;9234;49.344;11.120;2023-07-22T01:11:36;13.90;99.90
18218;DHT22;9234;49.344;11.120;2023-07-22T01:14:05;13.80;99.90
18218;DHT22;9234;49.344;11.120;2023-07-22T01:16:36;13.80;99.90
18218;DHT22;9234;49.344;11.120;2023-07-22T01:19:06;13.80;99.90
18218;DHT22;9234;49.344;11.120;2023-07-22T01:21:36;13.80;99.90
18218;DHT22;9234;49.344;11.120;2023-07-22T01:24:07;13.70;99.90
18218;DHT22;9234;49.344;11.120;2023-07-22T01:26:36;13.70;99.90
18218;DHT22;9234;49.344;11.120;2023-07-22T01:29:05;13.70;99.90
18218;DHT22;9234;49.344;11.120;2023-07-22T01:31:34;13.70;99.90
18218;DHT22;9234;49.344;11.120;2023-07-22T01:34:04;13.60;99.90
18218;DHT22;9234;49.344;11.120;2023-07-22T01:36:32;13.60;99.90
18218;DHT22;9234;49.344;11.120;2023-07-22T01:39:01;13.60;99.90
18218;DHT22;9234;49.344;11.120;2023-07-22T01:41:34;13.60;99.90
18218;DHT22;9234;49.344;11.120;2023-07-22T01:44:02;13.50;99.90
18218;DHT22;9234;49.344;11.120;2023-07-22T01:46:31;13.50;99.90
18218;DHT22;9234;49.344;11.120;2023-07-22T01:49:03;13.40;99.90
18218;DHT22;9234;49.344;11.120;2023-07-22T01:51:33;13.40;99.90
18218;DHT22;9234;49.344;11.120;2023-07-22T01:54:02;13.30;99.90
18218;DHT22;9234;49.344;11.120;2023-07-22T01:56:31;13.20;99.90
18218;DHT22;9234;49.344;11.120;2023-07-22T01:59:01;13.20;99.90
18218;DHT22;9234;49.344;11.120;2023-07-22T02:01:30;13.10;99.90
18218;DHT22;9234;49.344;11.120;2023-07-22T02:03:58;13.20;99.90
18218;DHT22;9234;49.344;11.120;2023-07-22T02:06:27;13.10;99.90
18218;DHT22;9234;49.344;11.120;2023-07-22T02:08:57;13.10;99.90
18218;DHT22;9234;49.344;11.120;2023-07-22T02:11:25;13.00;99.90
18218;DHT22;9234;49.344;11.120;2023-07-22T02:13:53;13.00;99.90
18218;DHT22;9234;49.344;11.120;2023-07-22T02:16:23;12.90;99.90
18218;DHT22;9234;49.344;11.120;2023-07-22T02:18:52;12.90;99.90
18218;DHT22;9234;49.344;11.120;2023-07-22T02:21:20;12.90;99.90
18218;DHT22;9234;49.344;11.120;2023-07-22T02:23:49;12.80;99.90
18218;DHT22;9234;49.344;11.120;2023-07-22T02:26:17;12.80;99.90
18218;DHT22;9234;49.344;11.120;2023-07-22T02:28:46;12.70;99.90
18218;DHT22;9234;49.344;11.120;2023-07-22T02:31:14;12.70;99.90
18218;DHT22;9234;49.344;11.120;2023-07-22T02:33:44;12.70;99.90
18218;DHT22;9234;49.344;11.120;2023-07-22T02:36:13;12.60;99.90
18218;DHT22;9234;49.344;11.120;2023-07-22T02:38:41;12.60;99.90
18218;DHT22;9234;49.344;11.120;2023-07-22T02:41:12;12.60;99.90
18218;DHT22;9234;49.344;11.120;2023-07-22T02:43:40;12.50;99.90
18218;DHT22;9234;49.344;11.120;2023-07-22T02:46:09;12.50;99.90
18218;DHT22;9234;49.344;11.120;2023-07-22T02:48:37;12.40;99.90
18218;DHT22;9234;49.344;11.120;2023-07-22T02:51:09;12.40;99.90
18218;DHT22;9234;49.344;11.120;2023-07-22T02:53:38;12.40;99.90
18218;DHT22;9234;49.344;11.120;2023-07-22T02:56:08;12.40;99.90
18218;DHT22;9234;49.344;11.120;2023-07-22T02:58:38;12.30;99.90
18218;DHT22;9234;49.344;11.120;2023-07-22T03:01:08;12.30;99.90
18218;DHT22;9234;49.344;11.120;2023-07-22T03:03:37;12.20;99.90
18218;DHT22;9234;49.344;11.120;2023-07-22T03:06:08;12.20;99.90
18218;DHT22;9234;49.344;11.120;2023-07-22T03:08:37;12.20;99.90
18218;DHT22;9234;49.344;11.120;2023-07-22T03:11:05;12.20;99.90
18218;DHT22;9234;49.344;11.120;2023-07-22T03:13:33;12.20;99.90
18218;DHT22;9234;49.344;11.120;2023-07-22T03:16:02;12.20;99.90
18218;DHT22;9234;49.344;11.120;2023-07-22T03:18:32;12.10;99.90
18218;DHT22;9234;49.344;11.120;2023-07-22T03:21:00;12.10;99.90
18218;DHT22;9234;49.344;11.120;2023-07-22T03:23:30;12.10;99.90
18218;DHT22;9234;49.344;11.120;2023-07-22T03:25:59;12.10;99.90
18218;DHT22;9234;49.344;11.120;2023-07-22T03:28:28;12.00;99.90
18218;DHT22;9234;49.344;11.120;2023-07-22T03:30:56;12.00;99.90
18218;DHT22;9234;49.344;11.120;2023-07-22T03:33:24;12.00;99.90
18218;DHT22;9234;49.344;11.120;2023-07-22T03:35:53;12.00;99.90
18218;DHT22;9234;49.344;11.120;2023-07-22T03:38:21;12.00;99.90
18218;DHT22;9234;49.344;11.120;2023-07-22T03:40:51;11.90;99.90
18218;DHT22;9234;49.344;11.120;2023-07-22T03:43:20;11.90;99.90
18218;DHT22;9234;49.344;11.120;2023-07-22T03:45:49;11.90;99.90
18218;DHT22;9234;49.344;11.120;2023-07-22T03:48:17;11.90;99.90
18218;DHT22;9234;49.344;11.120;2023-07-22T03:50:46;11.90;99.90
18218;DHT22;9234;49.344;11.120;2023-07-22T03:53:15;11.80;99.90
18218;DHT22;9234;49.344;11.120;2023-07-22T03:55:43;11.80;99.90
18218;DHT22;9234;49.344;11.120;2023-07-22T03:58:13;11.90;99.90
18218;DHT22;9234;49.344;11.120;2023-07-22T04:00:48;11.80;99.90
18218;DHT22;9234;49.344;11.120;2023-07-22T04:03:17;11.90;99.90
18218;DHT22;9234;49.344;11.120;2023-07-22T04:05:53;11.90;99.90
18218;DHT22;9234;49.344;11.120;2023-07-22T04:08:22;11.90;99.90
18218;DHT22;9234;49.344;11.120;2023-07-22T04:10:52;11.90;99.90
18218;DHT22;9234;49.344;11.120;2023-07-22T04:13:22;11.90;99.90
18218;DHT22;9234;49.344;11.120;2023-07-22T04:15:52;11.90;99.90
18218;DHT22;9234;49.344;11.120;2023-07-22T04:18:21;11.80;99.90
18218;DHT22;9234;49.344;11.120;2023-07-22T04:20:55;11.90;99.90
18218;DHT22;9234;49.344;11.120;2023-07-22T04:23:24;11.90;99.90
18218;DHT22;9234;49.344;11.120;2023-07-22T04:25:52;11.90;99.90
18218;DHT22;9234;49.344;11.120;2023-07-22T04:28:22;11.90;99.90
18218;DHT22;9234;49.344;11.120;2023-07-22T04:30:58;11.90;99.90
18218;DHT22;9234;49.344;11.120;2023-07-22T04:33:27;12.00;99.90
18218;DHT22;9234;49.344;11.120;2023-07-22T04:35:57;12.00;99.90
18218;DHT22;9234;49.344;11.120;2023-07-22T04:38:27;12.10;99.90
18218;DHT22;9234;49.344;11.120;2023-07-22T04:40:56;12.10;99.90
18218;DHT22;9234;49.344;11.120;2023-07-22T04:43:26;12.20;99.90
18218;DHT22;9234;49.344;11.120;2023-07-22T04:45:54;12.30;99.90
18218;DHT22;9234;49.344;11.120;2023-07-22T04:48:23;12.40;99.90
18218;DHT22;9234;49.344;11.120;2023-07-22T04:50:51;12.50;99.90
18218;DHT22;9234;49.344;11.120;2023-07-22T04:53:20;12.60;99.90
18218;DHT22;9234;49.344;11.120;2023-07-22T04:55:49;12.70;99.90
18218;DHT22;9234;49.344;11.120;2023-07-22T04:58:17;12.80;99.90
18218;DHT22;9234;49.344;11.120;2023-07-22T05:00:48;12.90;99.90
18218;DHT22;9234;49.344;11.120;2023-07-22T05:03:17;13.00;99.90
18218;DHT22;9234;49.344;11.120;2023-07-22T05:05:46;13.10;99.90
18218;DHT22;9234;49.344;11.120;2023-07-22T05:08:14;13.20;99.90
18218;DHT22;9234;49.344;11.120;2023-07-22T05:10:43;13.30;99.90
18218;DHT22;9234;49.344;11.120;2023-07-22T05:13:11;13.40;99.90
18218;DHT22;9234;49.344;11.120;2023-07-22T05:15:39;13.50;99.90
18218;DHT22;9234;49.344;11.120;2023-07-22T05:18:09;13.60;99.90
18218;DHT22;9234;49.344;11.120;2023-07-22T05:20:38;13.60;99.90
18218;DHT22;9234;49.344;11.120;2023-07-22T05:23:06;13.60;99.90
18218;DHT22;9234;49.344;11.120;2023-07-22T05:25:35;13.70;99.90
18218;DHT22;9234;49.344;11.120;2023-07-22T05:28:03;13.70;99.90
18218;DHT22;9234;49.344;11.120;2023-07-22T05:30:32;13.80;99.90
18218;DHT22;9234;49.344;11.120;2023-07-22T05:33:02;13.80;99.90
18218;DHT22;9234;49.344;11.120;2023-07-22T05:35:32;13.90;99.90
18218;DHT22;9234;49.344;11.120;2023-07-22T05:38:00;13.90;99.90
18218;DHT22;9234;49.344;11.120;2023-07-22T05:40:30;14.00;99.90
18218;DHT22;9234;49.344;11.120;2023-07-22T05:42:59;14.10;99.90
18218;DHT22;9234;49.344;11.120;2023-07-22T05:45:27;14.20;99.90
18218;DHT22;9234;49.344;11.120;2023-07-22T05:47:56;14.40;99.90
18218;DHT22;9234;49.344;11.120;2023-07-22T05:50:24;14.50;99.90
18218;DHT22;9234;49.344;11.120;2023-07-22T05:52:54;14.60;99.90
18218;DHT22;9234;49.344;11.120;2023-07-22T05:55:22;14.70;99.90
18218;DHT22;9234;49.344;11.120;2023-07-22T05:57:51;14.70;99.90
18218;DHT22;9234;49.344;11.120;2023-07-22T06:00:19;14.80;99.90
18218;DHT22;9234;49.344;11.120;2023-07-22T06:02:48;14.90;99.90
18218;DHT22;9234;49.344;11.120;2023-07-22T06:05:16;15.10;99.90
18218;DHT22;9234;49.344;11.120;2023-07-22T06:07:45;15.20;99.90
18218;DHT22;9234;49.344;11.120;2023-07-22T06:10:14;15.40;99.90
18218;DHT22;9234;49.344;11.120;2023-07-22T06:12:43;15.60;99.90
18218;DHT22;9234;49.344;11.120;2023-07-22T06:15:11;15.80;99.90
18218;DHT22;9234;49.344;11.120;2023-07-22T06:17:39;15.90;99.90
18218;DHT22;9234;49.344;11.120;2023-07-22T06:20:09;16.00;99.90
18218;DHT22;9234;49.344;11.120;2023-07-22T06:22:38;16.10;99.90
18218;DHT22;9234;49.344;11.120;2023-07-22T06:25:07;16.30;99.90
18218;DHT22;9234;49.344;11.120;2023-07-22T06:27:38;16.40;99.90
18218;DHT22;9234;49.344;11.120;2023-07-22T06:30:07;16.50;99.90
18218;DHT22;9234;49.344;11.120;2023-07-22T06:32:37;16.70;99.90
18218;DHT22;9234;49.344;11.120;2023-07-22T06:35:06;16.80;99.90
18218;DHT22;9234;49.344;11.120;2023-07-22T06:37:35;16.80;99.90
18218;DHT22;9234;49.344;11.120;2023-07-22T06:40:04;16.90;99.90
18218;DHT22;9234;49.344;11.120;2023-07-22T06:42:33;17.00;99.90
18218;DHT22;9234;49.344;11.120;2023-07-22T06:45:04;17.10;99.90
18218;DHT22;9234;49.344;11.120;2023-07-22T06:47:32;17.10;99.90
18218;DHT22;9234;49.344;11.120;2023-07-22T06:50:02;17.20;99.90
18218;DHT22;9234;49.344;11.120;2023-07-22T06:52:31;17.40;99.90
18218;DHT22;9234;49.344;11.120;2023-07-22T06:55:00;17.50;99.90
18218;DHT22;9234;49.344;11.120;2023-07-22T06:57:29;17.60;99.90
18218;DHT22;9234;49.344;11.120;2023-07-22T06:59:58;17.70;99.90
18218;DHT22;9234;49.344;11.120;2023-07-22T07:02:27;17.70;99.90
18218;DHT22;9234;49.344;11.120;2023-07-22T07:04:56;17.90;99.90
18218;DHT22;9234;49.344;11.120;2023-07-22T07:07:24;18.00;99.90
18218;DHT22;9234;49.344;11.120;2023-07-22T07:09:52;18.00;99.90
18218;DHT22;9234;49.344;11.120;2023-07-22T07:12:21;18.10;99.90
18218;DHT22;9234;49.344;11.120;2023-07-22T07:14:53;18.10;99.90
18218;DHT22;9234;49.344;11.120;2023-07-22T07:17:32;18.20;99.90
18218;DHT22;9234;49.344;11.120;2023-07-22T07:20:01;18.30;99.90
18218;DHT22;9234;49.344;11.120;2023-07-22T07:22:29;18.30;99.90
18218;DHT22;9234;49.344;11.120;2023-07-22T07:24:57;18.30;99.90
18218;DHT22;9234;49.344;11.120;2023-07-22T07:27:26;18.30;99.90
18218;DHT22;9234;49.344;11.120;2023-07-22T07:29:55;18.30;99.90
18218;DHT22;9234;49.344;11.120;2023-07-22T07:32:23;18.40;99.90
18218;DHT22;9234;49.344;11.120;2023-07-22T07:34:53;18.60;99.90
18218;DHT22;9234;49.344;11.120;2023-07-22T07:37:22;18.70;99.90
18218;DHT22;9234;49.344;11.120;2023-07-22T07:39:51;18.80;99.80
18218;DHT22;9234;49.344;11.120;2023-07-22T07:42:19;19.00;99.90
18218;DHT22;9234;49.344;11.120;2023-07-22T07:44:47;19.20;99.60
18218;DHT22;9234;49.344;11.120;2023-07-22T07:47:16;19.40;98.90
18218;DHT22;9234;49.344;11.120;2023-07-22T07:49:44;19.40;97.90
18218;DHT22;9234;49.344;11.120;2023-07-22T07:52:14;19.50;96.60
18218;DHT22;9234;49.344;11.120;2023-07-22T07:54:42;19.60;97.20
18218;DHT22;9234;49.344;11.120;2023-07-22T07:57:11;19.80;96.70
18218;DHT22;9234;49.344;11.120;2023-07-22T07:59:39;19.90;96.40
18218;DHT22;9234;49.344;11.120;2023-07-22T08:02:07;20.00;94.80
18218;DHT22;9234;49.344;11.120;2023-07-22T08:04:37;20.10;94.10
18218;DHT22;9234;49.344;11.120;2023-07-22T08:07:06;20.20;94.00
18218;DHT22;9234;49.344;11.120;2023-07-22T08:09:37;20.30;93.40
18218;DHT22;9234;49.344;11.120;2023-07-22T08:12:05;20.40;92.70
18218;DHT22;9234;49.344;11.120;2023-07-22T08:14:35;20.60;93.10
18218;DHT22;9234;49.344;11.120;2023-07-22T08:17:03;20.80;93.00
18218;DHT22;9234;49.344;11.120;2023-07-22T08:19:32;20.90;92.00
18218;DHT22;9234;49.344;11.120;2023-07-22T08:22:00;21.00;91.40
18218;DHT22;9234;49.344;11.120;2023-07-22T08:24:29;21.10;91.20
18218;DHT22;9234;49.344;11.120;2023-07-22T08:26:59;21.00;90.10
18218;DHT22;9234;49.344;11.120;2023-07-22T08:29:27;21.10;88.30
18218;DHT22;9234;49.344;11.120;2023-07-22T08:31:55;21.20;88.90
18218;DHT22;9234;49.344;11.120;2023-07-22T08:34:24;21.30;88.50
18218;DHT22;9234;49.344;11.120;2023-07-22T08:36:53;21.50;88.90
18218;DHT22;9234;49.344;11.120;2023-07-22T08:39:21;21.70;88.70
18218;DHT22;9234;49.344;11.120;2023-07-22T08:41:50;21.80;88.30
18218;DHT22;9234;49.344;11.120;2023-07-22T08:44:20;22.00;87.10
18218;DHT22;9234;49.344;11.120;2023-07-22T08:46:54;22.20;85.50
18218;DHT22;9234;49.344;11.120;2023-07-22T08:49:26;22.20;84.20
18218;DHT22;9234;49.344;11.120;2023-07-22T08:51:56;22.30;84.80
18218;DHT22;9234;49.344;11.120;2023-07-22T08:54:25;22.50;85.40
18218;DHT22;9234;49.344;11.120;2023-07-22T08:56:54;22.70;84.90
18218;DHT22;9234;49.344;11.120;2023-07-22T08:59:24;22.80;82.70
18218;DHT22;9234;49.344;11.120;2023-07-22T09:01:53;22.90;82.90
18218;DHT22;9234;49.344;11.120;2023-07-22T09:04:22;23.00;80.20
18218;DHT22;9234;49.344;11.120;2023-07-22T09:06:51;23.00;81.30
18218;DHT22;9234;49.344;11.120;2023-07-22T09:09:21;23.20;78.10
18218;DHT22;9234;49.344;11.120;2023-07-22T09:11:52;23.20;77.90
18218;DHT22;9234;49.344;11.120;2023-07-22T09:14:23;23.50;79.10
18218;DHT22;9234;49.344;11.120;2023-07-22T09:17:04;23.70;77.60
18218;DHT22;9234;49.344;11.120;2023-07-22T09:19:33;24.00;77.00
18218;DHT22;9234;49.344;11.120;2023-07-22T09:22:01;24.10;74.80
18218;DHT22;9234;49.344;11.120;2023-07-22T09:24:30;24.20;74.50
18218;DHT22;9234;49.344;11.120;2023-07-22T09:26:59;24.30;71.60
18218;DHT22;9234;49.344;11.120;2023-07-22T09:29:36;24.20;71.10
18218;DHT22;9234;49.344;11.120;2023-07-22T09:32:07;24.30;70.80
18218;DHT22;9234;49.344;11.120;2023-07-22T09:34:35;24.40;72.30
18218;DHT22;9234;49.344;11.120;2023-07-22T09:37:04;24.70;72.90
18218;DHT22;9234;49.344;11.120;2023-07-22T09:39:35;25.00;70.20
18218;DHT22;9234;49.344;11.120;2023-07-22T09:42:04;25.20;70.50
18218;DHT22;9234;49.344;11.120;2023-07-22T09:44:36;25.40;67.40
18218;DHT22;9234;49.344;11.120;2023-07-22T09:47:08;25.30;67.50
18218;DHT22;9234;49.344;11.120;2023-07-22T09:49:40;25.40;67.20
18218;DHT22;9234;49.344;11.120;2023-07-22T09:52:10;25.40;67.10
18218;DHT22;9234;49.344;11.120;2023-07-22T09:54:47;25.20;67.00
18218;DHT22;9234;49.344;11.120;2023-07-22T09:57:18;25.00;68.10
18218;DHT22;9234;49.344;11.120;2023-07-22T09:59:49;24.90;68.60
18218;DHT22;9234;49.344;11.120;2023-07-22T10:02:22;24.80;69.20
18218;DHT22;9234;49.344;11.120;2023-07-22T10:04:52;24.80;69.20
18218;DHT22;9234;49.344;11.120;2023-07-22T10:07:24;24.70;69.80
18218;DHT22;9234;49.344;11.120;2023-07-22T10:09:54;24.60;70.00
18218;DHT22;9234;49.344;11.120;2023-07-22T10:12:23;24.40;70.20
18218;DHT22;9234;49.344;11.120;2023-07-22T10:14:53;24.30;70.50
18218;DHT22;9234;49.344;11.120;2023-07-22T10:17:22;24.30;70.70
18218;DHT22;9234;49.344;11.120;2023-07-22T10:19:52;24.20;70.90
18218;DHT22;9234;49.344;11.120;2023-07-22T10:22:22;24.10;71.10
18218;DHT22;9234;49.344;11.120;2023-07-22T10:24:52;24.10;71.60
18218;DHT22;9234;49.344;11.120;2023-07-22T10:27:23;24.20;71.10
18218;DHT22;9234;49.344;11.120;2023-07-22T10:29:54;24.30;71.40
18218;DHT22;9234;49.344;11.120;2023-07-22T10:32:23;24.20;70.00
18218;DHT22;9234;49.344;11.120;2023-07-22T10:34:51;24.00;69.20
18218;DHT22;9234;49.344;11.120;2023-07-22T10:37:20;23.70;70.20
18218;DHT22;9234;49.344;11.120;2023-07-22T10:39:51;23.50;71.20
18218;DHT22;9234;49.344;11.120;2023-07-22T10:42:24;23.40;72.00
18218;DHT22;9234;49.344;11.120;2023-07-22T10:44:54;23.30;72.60
18218;DHT22;9234;49.344;11.120;2023-07-22T10:47:35;23.30;72.80
18218;DHT22;9234;49.344;11.120;2023-07-22T10:50:08;23.30;73.20
18218;DHT22;9234;49.344;11.120;2023-07-22T10:52:41;23.30;74.60
18218;DHT22;9234;49.344;11.120;2023-07-22T10:55:15;23.20;73.20
18218;DHT22;9234;49.344;11.120;2023-07-22T10:57:52;23.10;73.80
18218;DHT22;9234;49.344;11.120;2023-07-22T11:00:29;23.20;74.60
18218;DHT22;9234;49.344;11.120;2023-07-22T11:03:10;23.30;74.60
18218;DHT22;9234;49.344;11.120;2023-07-22T11:05:51;23.50;74.50
18218;DHT22;9234;49.344;11.120;2023-07-22T11:08:35;23.40;71.80
18218;DHT22;9234;49.344;11.120;2023-07-22T11:11:05;23.50;72.00
18218;DHT22;9234;49.344;11.120;2023-07-22T11:13:37;23.80;72.90
18218;DHT22;9234;49.344;11.120;2023-07-22T11:16:11;24.10;71.70
18218;DHT22;9234;49.344;11.120;2023-07-22T11:18:41;24.40;71.00
18218;DHT22;9234;49.344;11.120;2023-07-22T11:21:11;24.70;70.40
18218;DHT22;9234;49.344;11.120;2023-07-22T11:23:40;24.80;67.20
18218;DHT22;9234;49.344;11.120;2023-07-22T11:26:08;25.10;68.10
18218;DHT22;9234;49.344;11.120;2023-07-22T11:28:37;25.40;67.10
18218;DHT22;9234;49.344;11.120;2023-07-22T11:31:08;25.60;66.60
18218;DHT22;9234;49.344;11.120;2023-07-22T11:33:41;25.90;66.00
18218;DHT22;9234;49.344;11.120;2023-07-22T11:36:13;26.10;64.80
18218;DHT22;9234;49.344;11.120;2023-07-22T11:38:41;26.20;63.50
18218;DHT22;9234;49.344;11.120;2023-07-22T11:41:09;26.40;63.30
18218;DHT22;9234;49.344;11.120;2023-07-22T11:43:38;26.80;63.80
18218;DHT22;9234;49.344;11.120;2023-07-22T11:46:07;27.10;62.40
18218;DHT22;9234;49.344;11.120;2023-07-22T11:48:35;27.30;60.40
18218;DHT22;9234;49.344;11.120;2023-07-22T11:51:07;27.50;60.80
18218;DHT22;9234;49.344;11.120;2023-07-22T11:53:35;27.60;59.40
18218;DHT22;9234;49.344;11.120;2023-07-22T11:56:05;27.60;58.50
18218;DHT22;9234;49.344;11.120;2023-07-22T11:58:33;27.70;58.70
18218;DHT22;9234;49.344;11.120;2023-07-22T12:01:03;27.60;56.90
18218;DHT22;9234;49.344;11.120;2023-07-22T12:03:33;27.20;58.40
18218;DHT22;9234;49.344;11.120;2023-07-22T12:06:02;27.20;59.20
18218;DHT22;9234;49.344;11.120;2023-07-22T12:08:32;27.50;59.20
18218;DHT22;9234;49.344;11.120;2023-07-22T12:11:02;27.60;59.30
18218;DHT22;9234;49.344;11.120;2023-07-22T12:13:36;27.80;58.60
18218;DHT22;9234;49.344;11.120;2023-07-22T12:16:05;28.00;56.70
18218;DHT22;9234;49.344;11.120;2023-07-22T12:18:44;27.80;57.30
18218;DHT22;9234;49.344;11.120;2023-07-22T12:21:14;27.80;57.40
18218;DHT22;9234;49.344;11.120;2023-07-22T12:23:45;28.20;57.40
18218;DHT22;9234;49.344;11.120;2023-07-22T12:26:14;28.40;57.20
18218;DHT22;9234;49.344;11.120;2023-07-22T12:28:42;28.20;56.30
18218;DHT22;9234;49.344;11.120;2023-07-22T12:31:12;28.10;56.40
18218;DHT22;9234;49.344;11.120;2023-07-22T12:33:40;27.70;56.10
18218;DHT22;9234;49.344;11.120;2023-07-22T12:36:09;27.50;57.20
18218;DHT22;9234;49.344;11.120;2023-07-22T12:38:38;27.20;57.10
18218;DHT22;9234;49.344;11.120;2023-07-22T12:41:07;27.10;57.80
18218;DHT22;9234;49.344;11.120;2023-07-22T12:43:36;27.00;57.20
18218;DHT22;9234;49.344;11.120;2023-07-22T12:46:04;27.30;58.20
18218;DHT22;9234;49.344;11.120;2023-07-22T12:48:33;27.50;58.10
18218;DHT22;9234;49.344;11.120;2023-07-22T12:51:01;27.70;57.50
18218;DHT22;9234;49.344;11.120;2023-07-22T12:53:30;27.90;56.70
18218;DHT22;9234;49.344;11.120;2023-07-22T12:55:59;28.20;56.00
18218;DHT22;9234;49.344;11.120;2023-07-22T12:58:31;28.50;55.30
18218;DHT22;9234;49.344;11.120;2023-07-22T13:01:00;28.90;53.10
18218;DHT22;9234;49.344;11.120;2023-07-22T13:03:28;29.30;53.60
18218;DHT22;9234;49.344;11.120;2023-07-22T13:05:57;29.70;51.00
18218;DHT22;9234;49.344;11.120;2023-07-22T13:08:25;29.80;51.90
18218;DHT22;9234;49.344;11.120;2023-07-22T13:10:54;29.30;50.10
18218;DHT22;9234;49.344;11.120;2023-07-22T13:13:22;28.80;51.00
18218;DHT22;9234;49.344;11.120;2023-07-22T13:15:52;28.30;52.10
18218;DHT22;9234;49.344;11.120;2023-07-22T13:18:21;27.80;52.30
18218;DHT22;9234;49.344;11.120;2023-07-22T13:20:50;27.40;52.90
18218;DHT22;9234;49.344;11.120;2023-07-22T13:23:18;27.10;54.00
18218;DHT22;9234;49.344;11.120;2023-07-22T13:25:47;27.00;54.50
18218;DHT22;9234;49.344;11.120;2023-07-22T13:28:16;27.10;54.70
18218;DHT22;9234;49.344;11.120;2023-07-22T13:30:44;27.50;54.20
18218;DHT22;9234;49.344;11.120;2023-07-22T13:33:14;27.90;52.80
18218;DHT22;9234;49.344;11.120;2023-07-22T13:35:42;28.30;51.80
18218;DHT22;9234;49.344;11.120;2023-07-22T13:38:11;28.80;50.70
18218;DHT22;9234;49.344;11.120;2023-07-22T13:40:39;29.10;50.60
18218;DHT22;9234;49.344;11.120;2023-07-22T13:43:08;29.10;49.20
18218;DHT22;9234;49.344;11.120;2023-07-22T13:45:36;29.00;49.30
18218;DHT22;9234;49.344;11.120;2023-07-22T13:48:05;28.80;49.10
18218;DHT22;9234;49.344;11.120;2023-07-22T13:50:35;28.50;49.40
18218;DHT22;9234;49.344;11.120;2023-07-22T13:53:06;28.40;50.10
18218;DHT22;9234;49.344;11.120;2023-07-22T13:55:35;28.30;49.80
18218;DHT22;9234;49.344;11.120;2023-07-22T13:58:04;28.30;50.70
18218;DHT22;9234;49.344;11.120;2023-07-22T14:00:33;28.30;50.40
18218;DHT22;9234;49.344;11.120;2023-07-22T14:03:02;28.10;50.30
18218;DHT22;9234;49.344;11.120;2023-07-22T14:05:31;27.70;50.20
18218;DHT22;9234;49.344;11.120;2023-07-22T14:08:01;27.50;50.80
18218;DHT22;9234;49.344;11.120;2023-07-22T14:10:30;27.60;51.50
18218;DHT22;9234;49.344;11.120;2023-07-22T14:12:58;28.30;51.20
18218;DHT22;9234;49.344;11.120;2023-07-22T14:15:27;28.90;50.00
18218;DHT22;9234;49.344;11.120;2023-07-22T14:17:55;29.20;48.90
18218;DHT22;9234;49.344;11.120;2023-07-22T14:20:24;29.10;48.50
18218;DHT22;9234;49.344;11.120;2023-07-22T14:22:52;28.80;48.90
18218;DHT22;9234;49.344;11.120;2023-07-22T14:25:22;28.40;49.50
18218;DHT22;9234;49.344;11.120;2023-07-22T14:27:51;28.20;49.30
18218;DHT22;9234;49.344;11.120;2023-07-22T14:30:19;27.70;50.10
18218;DHT22;9234;49.344;11.120;2023-07-22T14:32:47;27.50;51.00
18218;DHT22;9234;49.344;11.120;2023-07-22T14:35:16;27.80;51.90
18218;DHT22;9234;49.344;11.120;2023-07-22T14:37:44;28.40;50.80
18218;DHT22;9234;49.344;11.120;2023-07-22T14:40:13;28.80;50.40
18218;DHT22;9234;49.344;11.120;2023-07-22T14:42:43;29.00;48.60
18218;DHT22;9234;49.344;11.120;2023-07-22T14:45:11;29.40;49.10
18218;DHT22;9234;49.344;11.120;2023-07-22T14:47:40;29.70;47.10
18218;DHT22;9234;49.344;11.120;2023-07-22T14:50:09;29.40;47.00
18218;DHT22;9234;49.344;11.120;2023-07-22T14:52:38;29.20;47.40
18218;DHT22;9234;49.344;11.120;2023-07-22T14:55:07;29.10;47.90
18218;DHT22;9234;49.344;11.120;2023-07-22T14:57:36;29.20;48.30
18218;DHT22;9234;49.344;11.120;2023-07-22T15:00:07;29.70;47.30
18218;DHT22;9234;49.344;11.120;2023-07-22T15:02:37;30.20;46.40
18218;DHT22;9234;49.344;11.120;2023-07-22T15:05:06;30.50;45.10
18218;DHT22;9234;49.344;11.120;2023-07-22T15:07:35;30.90;45.50
18218;DHT22;9234;49.344;11.120;2023-07-22T15:10:04;31.30;45.40
18218;DHT22;9234;49.344;11.120;2023-07-22T15:12:34;31.40;44.50
18218;DHT22;9234;49.344;11.120;2023-07-22T15:15:02;31.50;44.50
18218;DHT22;9234;49.344;11.120;2023-07-22T15:17:34;31.50;44.50
18218;DHT22;9234;49.344;11.120;2023-07-22T15:20:03;31.40;44.30
18218;DHT22;9234;49.344;11.120;2023-07-22T15:22:32;30.80;43.90
18218;DHT22;9234;49.344;11.120;2023-07-22T15:25:02;30.30;45.20
18218;DHT22;9234;49.344;11.120;2023-07-22T15:27:32;30.30;45.70
18218;DHT22;9234;49.344;11.120;2023-07-22T15:30:00;30.60;46.70
18218;DHT22;9234;49.344;11.120;2023-07-22T15:32:29;31.30;46.30
18218;DHT22;9234;49.344;11.120;2023-07-22T15:34:58;32.10;44.70
18218;DHT22;9234;49.344;11.120;2023-07-22T15:37:27;32.90;43.10
18218;DHT22;9234;49.344;11.120;2023-07-22T15:39:55;33.30;42.10
18218;DHT22;9234;49.344;11.120;2023-07-22T15:42:23;33.80;42.00
18218;DHT22;9234;49.344;11.120;2023-07-22T15:44:51;34.10;40.80